sensor_id;sensor_type;location;lat;lon;timestamp;P1;durP1;ratioP1;P2;durP2;ratioP2
17985;SDS011;9118;48.122;11.546;2023-03-01T00:00:21;28.27;;;15.07;;
17985;SDS011;9118;48.122;11.546;2023-03-01T00:02:48;29.33;;;16.23;;
17985;SDS011;9118;48.122;11.546;2023-03-01T00:05:17;27.77;;;16.20;;
17985;SDS011;9118;48.122;11.546;2023-03-01T00:07:44;26.23;;;15.63;;
17985;SDS011;9118;48.122;11.546;2023-03-01T00:10:11;28.70;;;16.23;;
17985;SDS011;9118;48.122;11.546;2023-03-01T00:12:41;27.07;;;15.83;;
17985;SDS011;9118;48.122;11.546;2023-03-01T00:15:08;29.57;;;16.23;;
17985;SDS011;9118;48.122;11.546;2023-03-01T00:17:36;27.33;;;17.07;;
17985;SDS011;9118;48.122;11.546;2023-03-01T00:20:04;25.43;;;15.57;;
17985;SDS011;9118;48.122;11.546;2023-03-01T00:22:34;27.97;;;16.50;;
17985;SDS011;9118;48.122;11.546;2023-03-01T00:25:01;30.30;;;16.37;;
17985;SDS011;9118;48.122;11.546;2023-03-01T00:27:29;27.47;;;15.90;;
17985;SDS011;9118;48.122;11.546;2023-03-01T00:29:56;24.77;;;15.97;;
17985;SDS011;9118;48.122;11.546;2023-03-01T00:32:23;26.87;;;16.47;;
17985;SDS011;9118;48.122;11.546;2023-03-01T00:34:53;26.23;;;16.13;;
17985;SDS011;9118;48.122;11.546;2023-03-01T00:37:20;28.57;;;15.43;;
17985;SDS011;9118;48.122;11.546;2023-03-01T00:39:49;26.80;;;15.47;;
17985;SDS011;9118;48.122;11.546;2023-03-01T00:42:16;25.00;;;15.40;;
17985;SDS011;9118;48.122;11.546;2023-03-01T00:44:43;30.17;;;16.30;;
17985;SDS011;9118;48.122;11.546;2023-03-01T00:47:13;27.43;;;16.13;;
17985;SDS011;9118;48.122;11.546;2023-03-01T00:49:40;25.73;;;16.27;;
17985;SDS011;9118;48.122;11.546;2023-03-01T00:52:07;27.90;;;16.07;;
17985;SDS011;9118;48.122;11.546;2023-03-01T00:54:34;27.40;;;16.73;;
17985;SDS011;9118;48.122;11.546;2023-03-01T00:57:02;26.67;;;16.10;;
17985;SDS011;9118;48.122;11.546;2023-03-01T00:59:29;27.10;;;16.13;;
17985;SDS011;9118;48.122;11.546;2023-03-01T01:01:56;26.63;;;15.73;;
17985;SDS011;9118;48.122;11.546;2023-03-01T01:04:24;26.17;;;16.37;;
17985;SDS011;9118;48.122;11.546;2023-03-01T01:06:51;26.57;;;15.93;;
17985;SDS011;9118;48.122;11.546;2023-03-01T01:09:18;25.53;;;15.57;;
17985;SDS011;9118;48.122;11.546;2023-03-01T01:11:45;25.13;;;15.37;;
17985;SDS011;9118;48.122;11.546;2023-03-01T01:14:14;27.93;;;16.57;;
17985;SDS011;9118;48.122;11.546;2023-03-01T01:16:42;29.00;;;16.23;;
17985;SDS011;9118;48.122;11.546;2023-03-01T01:19:09;29.50;;;16.87;;
17985;SDS011;9118;48.122;11.546;2023-03-01T01:21:38;27.43;;;16.37;;
17985;SDS011;9118;48.122;11.546;2023-03-01T01:24:06;28.90;;;16.93;;
17985;SDS011;9118;48.122;11.546;2023-03-01T01:26:33;29.20;;;16.07;;
17985;SDS011;9118;48.122;11.546;2023-03-01T01:29:01;27.47;;;16.77;;
17985;SDS011;9118;48.122;11.546;2023-03-01T01:31:31;30.80;;;16.90;;
17985;SDS011;9118;48.122;11.546;2023-03-01T01:34:00;27.10;;;16.47;;
17985;SDS011;9118;48.122;11.546;2023-03-01T01:36:29;29.43;;;16.43;;
17985;SDS011;9118;48.122;11.546;2023-03-01T01:38:56;26.60;;;16.27;;
17985;SDS011;9118;48.122;11.546;2023-03-01T01:41:24;28.97;;;16.57;;
17985;SDS011;9118;48.122;11.546;2023-03-01T01:46:39;27.83;;;17.00;;
17985;SDS011;9118;48.122;11.546;2023-03-01T01:49:11;29.63;;;16.67;;
17985;SDS011;9118;48.122;11.546;2023-03-01T01:51:49;28.37;;;16.63;;
17985;SDS011;9118;48.122;11.546;2023-03-01T01:54:19;27.53;;;16.80;;
17985;SDS011;9118;48.122;11.546;2023-03-01T01:56:50;27.10;;;16.00;;
17985;SDS011;9118;48.122;11.546;2023-03-01T01:59:21;28.20;;;16.53;;
17985;SDS011;9118;48.122;11.546;2023-03-01T02:01:51;25.50;;;15.43;;
17985;SDS011;9118;48.122;11.546;2023-03-01T02:04:22;27.70;;;16.17;;
17985;SDS011;9118;48.122;11.546;2023-03-01T02:06:51;29.97;;;16.27;;
17985;SDS011;9118;48.122;11.546;2023-03-01T02:09:24;30.37;;;16.47;;
17985;SDS011;9118;48.122;11.546;2023-03-01T02:11:52;28.33;;;16.40;;
17985;SDS011;9118;48.122;11.546;2023-03-01T02:14:20;26.07;;;16.00;;
17985;SDS011;9118;48.122;11.546;2023-03-01T02:16:47;32.27;;;16.50;;
17985;SDS011;9118;48.122;11.546;2023-03-01T02:19:17;26.43;;;16.17;;
17985;SDS011;9118;48.122;11.546;2023-03-01T02:21:56;30.40;;;16.70;;
17985;SDS011;9118;48.122;11.546;2023-03-01T02:24:32;32.07;;;16.43;;
17985;SDS011;9118;48.122;11.546;2023-03-01T02:27:10;26.40;;;16.37;;
17985;SDS011;9118;48.122;11.546;2023-03-01T02:29:39;28.23;;;15.90;;
17985;SDS011;9118;48.122;11.546;2023-03-01T02:32:09;26.87;;;16.07;;
17985;SDS011;9118;48.122;11.546;2023-03-01T02:34:38;27.97;;;16.67;;
17985;SDS011;9118;48.122;11.546;2023-03-01T02:37:06;27.30;;;16.10;;
17985;SDS011;9118;48.122;11.546;2023-03-01T02:39:39;27.63;;;16.67;;
17985;SDS011;9118;48.122;11.546;2023-03-01T02:42:09;31.97;;;16.23;;
17985;SDS011;9118;48.122;11.546;2023-03-01T02:44:40;31.03;;;16.47;;
17985;SDS011;9118;48.122;11.546;2023-03-01T02:47:09;29.00;;;15.97;;
17985;SDS011;9118;48.122;11.546;2023-03-01T02:49:37;27.23;;;16.17;;
17985;SDS011;9118;48.122;11.546;2023-03-01T02:52:07;26.87;;;16.37;;
17985;SDS011;9118;48.122;11.546;2023-03-01T02:54:50;25.63;;;16.07;;
17985;SDS011;9118;48.122;11.546;2023-03-01T02:57:21;26.23;;;15.73;;
17985;SDS011;9118;48.122;11.546;2023-03-01T02:59:51;24.47;;;15.33;;
17985;SDS011;9118;48.122;11.546;2023-03-01T03:02:21;27.50;;;16.10;;
17985;SDS011;9118;48.122;11.546;2023-03-01T03:05:01;24.40;;;15.43;;
17985;SDS011;9118;48.122;11.546;2023-03-01T03:07:34;26.47;;;15.60;;
17985;SDS011;9118;48.122;11.546;2023-03-01T03:10:01;25.73;;;16.03;;
17985;SDS011;9118;48.122;11.546;2023-03-01T03:12:29;28.20;;;16.63;;
17985;SDS011;9118;48.122;11.546;2023-03-01T03:15:00;30.77;;;16.60;;
17985;SDS011;9118;48.122;11.546;2023-03-01T03:17:33;25.73;;;15.33;;
17985;SDS011;9118;48.122;11.546;2023-03-01T03:20:01;26.30;;;16.33;;
17985;SDS011;9118;48.122;11.546;2023-03-01T03:22:29;24.67;;;15.13;;
17985;SDS011;9118;48.122;11.546;2023-03-01T03:24:58;28.63;;;17.07;;
17985;SDS011;9118;48.122;11.546;2023-03-01T03:27:40;25.13;;;16.13;;
17985;SDS011;9118;48.122;11.546;2023-03-01T03:30:11;25.93;;;15.87;;
17985;SDS011;9118;48.122;11.546;2023-03-01T03:32:40;25.80;;;15.93;;
17985;SDS011;9118;48.122;11.546;2023-03-01T03:35:17;28.73;;;16.13;;
17985;SDS011;9118;48.122;11.546;2023-03-01T03:37:45;26.43;;;15.90;;
17985;SDS011;9118;48.122;11.546;2023-03-01T03:40:32;28.57;;;16.33;;
17985;SDS011;9118;48.122;11.546;2023-03-01T03:43:00;25.43;;;15.57;;
17985;SDS011;9118;48.122;11.546;2023-03-01T03:45:29;28.10;;;16.67;;
17985;SDS011;9118;48.122;11.546;2023-03-01T03:47:58;29.40;;;16.87;;
17985;SDS011;9118;48.122;11.546;2023-03-01T03:50:25;28.07;;;16.57;;
17985;SDS011;9118;48.122;11.546;2023-03-01T03:52:53;30.80;;;16.67;;
17985;SDS011;9118;48.122;11.546;2023-03-01T03:55:19;25.10;;;15.47;;
17985;SDS011;9118;48.122;11.546;2023-03-01T03:57:47;29.33;;;16.97;;
17985;SDS011;9118;48.122;11.546;2023-03-01T04:00:16;26.17;;;16.47;;
17985;SDS011;9118;48.122;11.546;2023-03-01T04:02:47;28.20;;;16.57;;
17985;SDS011;9118;48.122;11.546;2023-03-01T04:05:15;31.03;;;17.43;;
17985;SDS011;9118;48.122;11.546;2023-03-01T04:07:43;29.40;;;16.37;;
17985;SDS011;9118;48.122;11.546;2023-03-01T04:10:12;26.67;;;16.00;;
17985;SDS011;9118;48.122;11.546;2023-03-01T04:12:42;27.13;;;16.97;;
17985;SDS011;9118;48.122;11.546;2023-03-01T04:15:10;28.13;;;16.87;;
17985;SDS011;9118;48.122;11.546;2023-03-01T04:17:41;29.07;;;17.57;;
17985;SDS011;9118;48.122;11.546;2023-03-01T04:20:11;26.33;;;16.40;;
17985;SDS011;9118;48.122;11.546;2023-03-01T04:22:42;27.47;;;16.30;;
17985;SDS011;9118;48.122;11.546;2023-03-01T04:25:12;29.67;;;16.93;;
17985;SDS011;9118;48.122;11.546;2023-03-01T04:27:39;27.90;;;16.73;;
17985;SDS011;9118;48.122;11.546;2023-03-01T04:30:07;24.93;;;15.40;;
17985;SDS011;9118;48.122;11.546;2023-03-01T04:32:36;32.13;;;17.17;;
17985;SDS011;9118;48.122;11.546;2023-03-01T04:35:03;28.13;;;16.70;;
17985;SDS011;9118;48.122;11.546;2023-03-01T04:37:32;27.93;;;16.50;;
17985;SDS011;9118;48.122;11.546;2023-03-01T04:39:59;31.63;;;17.73;;
17985;SDS011;9118;48.122;11.546;2023-03-01T04:42:37;30.87;;;16.47;;
17985;SDS011;9118;48.122;11.546;2023-03-01T04:45:07;29.77;;;17.13;;
17985;SDS011;9118;48.122;11.546;2023-03-01T04:47:38;29.43;;;16.87;;
17985;SDS011;9118;48.122;11.546;2023-03-01T04:50:06;32.60;;;17.83;;
17985;SDS011;9118;48.122;11.546;2023-03-01T04:52:35;27.67;;;17.27;;
17985;SDS011;9118;48.122;11.546;2023-03-01T04:55:03;29.80;;;17.10;;
17985;SDS011;9118;48.122;11.546;2023-03-01T04:57:32;29.23;;;17.50;;
17985;SDS011;9118;48.122;11.546;2023-03-01T05:00:01;28.37;;;17.00;;
17985;SDS011;9118;48.122;11.546;2023-03-01T05:02:44;29.87;;;17.43;;
17985;SDS011;9118;48.122;11.546;2023-03-01T05:05:13;30.17;;;16.80;;
17985;SDS011;9118;48.122;11.546;2023-03-01T05:07:42;30.03;;;16.73;;
17985;SDS011;9118;48.122;11.546;2023-03-01T05:10:09;31.77;;;17.80;;
17985;SDS011;9118;48.122;11.546;2023-03-01T05:12:36;30.17;;;16.37;;
17985;SDS011;9118;48.122;11.546;2023-03-01T05:15:04;29.80;;;16.53;;
17985;SDS011;9118;48.122;11.546;2023-03-01T05:17:32;29.20;;;16.83;;
17985;SDS011;9118;48.122;11.546;2023-03-01T05:19:59;31.20;;;17.50;;
17985;SDS011;9118;48.122;11.546;2023-03-01T05:22:31;31.90;;;17.47;;
17985;SDS011;9118;48.122;11.546;2023-03-01T05:24:59;30.43;;;16.93;;
17985;SDS011;9118;48.122;11.546;2023-03-01T05:27:26;27.43;;;16.73;;
17985;SDS011;9118;48.122;11.546;2023-03-01T05:29:54;30.33;;;17.10;;
17985;SDS011;9118;48.122;11.546;2023-03-01T05:32:21;31.87;;;17.07;;
17985;SDS011;9118;48.122;11.546;2023-03-01T05:34:48;33.13;;;16.87;;
17985;SDS011;9118;48.122;11.546;2023-03-01T05:37:17;29.00;;;15.80;;
17985;SDS011;9118;48.122;11.546;2023-03-01T05:39:44;33.17;;;17.57;;
17985;SDS011;9118;48.122;11.546;2023-03-01T05:42:13;30.07;;;16.23;;
17985;SDS011;9118;48.122;11.546;2023-03-01T05:44:40;28.93;;;17.20;;
17985;SDS011;9118;48.122;11.546;2023-03-01T05:47:07;33.63;;;17.60;;
17985;SDS011;9118;48.122;11.546;2023-03-01T05:49:34;29.00;;;17.10;;
17985;SDS011;9118;48.122;11.546;2023-03-01T05:52:01;31.90;;;17.60;;
17985;SDS011;9118;48.122;11.546;2023-03-01T05:54:28;48.87;;;18.17;;
17985;SDS011;9118;48.122;11.546;2023-03-01T05:56:58;31.37;;;16.67;;
17985;SDS011;9118;48.122;11.546;2023-03-01T05:59:26;29.93;;;16.60;;
17985;SDS011;9118;48.122;11.546;2023-03-01T06:01:53;28.53;;;16.80;;
17985;SDS011;9118;48.122;11.546;2023-03-01T06:04:20;30.37;;;16.90;;
17985;SDS011;9118;48.122;11.546;2023-03-01T06:06:47;36.40;;;17.87;;
17985;SDS011;9118;48.122;11.546;2023-03-01T06:09:14;30.40;;;17.90;;
17985;SDS011;9118;48.122;11.546;2023-03-01T06:11:41;33.73;;;17.70;;
17985;SDS011;9118;48.122;11.546;2023-03-01T06:14:11;27.87;;;16.93;;
17985;SDS011;9118;48.122;11.546;2023-03-01T06:16:41;30.90;;;17.20;;
17985;SDS011;9118;48.122;11.546;2023-03-01T06:19:08;28.50;;;16.70;;
17985;SDS011;9118;48.122;11.546;2023-03-01T06:21:35;28.67;;;17.40;;
17985;SDS011;9118;48.122;11.546;2023-03-01T06:24:02;31.47;;;17.50;;
17985;SDS011;9118;48.122;11.546;2023-03-01T06:26:31;31.57;;;18.13;;
17985;SDS011;9118;48.122;11.546;2023-03-01T06:28:59;29.33;;;16.37;;
17985;SDS011;9118;48.122;11.546;2023-03-01T06:31:27;29.60;;;16.80;;
17985;SDS011;9118;48.122;11.546;2023-03-01T06:33:55;39.93;;;17.97;;
17985;SDS011;9118;48.122;11.546;2023-03-01T06:36:22;30.63;;;17.93;;
17985;SDS011;9118;48.122;11.546;2023-03-01T06:38:49;31.37;;;16.97;;
17985;SDS011;9118;48.122;11.546;2023-03-01T06:41:16;33.20;;;17.47;;
17985;SDS011;9118;48.122;11.546;2023-03-01T06:43:43;26.67;;;15.87;;
17985;SDS011;9118;48.122;11.546;2023-03-01T06:46:10;32.70;;;16.53;;
17985;SDS011;9118;48.122;11.546;2023-03-01T06:48:37;29.53;;;17.27;;
17985;SDS011;9118;48.122;11.546;2023-03-01T06:51:06;31.50;;;17.27;;
17985;SDS011;9118;48.122;11.546;2023-03-01T06:53:33;34.63;;;17.50;;
17985;SDS011;9118;48.122;11.546;2023-03-01T06:56:00;33.37;;;17.30;;
17985;SDS011;9118;48.122;11.546;2023-03-01T06:58:27;35.00;;;18.57;;
17985;SDS011;9118;48.122;11.546;2023-03-01T07:00:55;31.03;;;17.77;;
17985;SDS011;9118;48.122;11.546;2023-03-01T07:03:22;29.37;;;17.43;;
17985;SDS011;9118;48.122;11.546;2023-03-01T07:05:49;31.80;;;17.47;;
17985;SDS011;9118;48.122;11.546;2023-03-01T07:08:18;37.33;;;18.17;;
17985;SDS011;9118;48.122;11.546;2023-03-01T07:10:46;36.63;;;17.87;;
17985;SDS011;9118;48.122;11.546;2023-03-01T07:13:14;34.17;;;17.90;;
17985;SDS011;9118;48.122;11.546;2023-03-01T07:15:41;32.50;;;17.20;;
17985;SDS011;9118;48.122;11.546;2023-03-01T07:18:08;32.30;;;17.03;;
17985;SDS011;9118;48.122;11.546;2023-03-01T07:20:35;36.07;;;18.33;;
17985;SDS011;9118;48.122;11.546;2023-03-01T07:23:05;36.10;;;17.80;;
17985;SDS011;9118;48.122;11.546;2023-03-01T07:25:33;37.50;;;18.53;;
17985;SDS011;9118;48.122;11.546;2023-03-01T07:28:01;39.73;;;18.43;;
17985;SDS011;9118;48.122;11.546;2023-03-01T07:30:28;33.27;;;17.03;;
17985;SDS011;9118;48.122;11.546;2023-03-01T07:32:56;31.00;;;18.37;;
17985;SDS011;9118;48.122;11.546;2023-03-01T07:35:24;31.70;;;17.53;;
17985;SDS011;9118;48.122;11.546;2023-03-01T07:37:53;34.90;;;18.37;;
17985;SDS011;9118;48.122;11.546;2023-03-01T07:40:20;35.57;;;17.80;;
17985;SDS011;9118;48.122;11.546;2023-03-01T07:42:49;36.30;;;17.47;;
17985;SDS011;9118;48.122;11.546;2023-03-01T07:45:21;35.23;;;17.03;;
17985;SDS011;9118;48.122;11.546;2023-03-01T07:47:49;33.80;;;18.10;;
17985;SDS011;9118;48.122;11.546;2023-03-01T07:50:17;31.33;;;17.07;;
17985;SDS011;9118;48.122;11.546;2023-03-01T07:52:47;36.37;;;17.97;;
17985;SDS011;9118;48.122;11.546;2023-03-01T07:55:16;37.40;;;18.60;;
17985;SDS011;9118;48.122;11.546;2023-03-01T07:57:43;37.40;;;18.87;;
17985;SDS011;9118;48.122;11.546;2023-03-01T08:00:12;37.23;;;17.30;;
17985;SDS011;9118;48.122;11.546;2023-03-01T08:02:40;44.47;;;19.67;;
17985;SDS011;9118;48.122;11.546;2023-03-01T08:05:08;37.70;;;18.47;;
17985;SDS011;9118;48.122;11.546;2023-03-01T08:07:35;33.37;;;17.67;;
17985;SDS011;9118;48.122;11.546;2023-03-01T08:10:02;34.70;;;17.20;;
17985;SDS011;9118;48.122;11.546;2023-03-01T08:12:30;35.33;;;18.90;;
17985;SDS011;9118;48.122;11.546;2023-03-01T08:14:57;36.90;;;19.43;;
17985;SDS011;9118;48.122;11.546;2023-03-01T08:17:25;32.30;;;18.13;;
17985;SDS011;9118;48.122;11.546;2023-03-01T08:19:52;30.23;;;17.77;;
17985;SDS011;9118;48.122;11.546;2023-03-01T08:22:19;37.70;;;18.70;;
17985;SDS011;9118;48.122;11.546;2023-03-01T08:24:46;33.40;;;18.80;;
17985;SDS011;9118;48.122;11.546;2023-03-01T08:27:14;36.20;;;19.23;;
17985;SDS011;9118;48.122;11.546;2023-03-01T08:29:41;30.73;;;16.77;;
17985;SDS011;9118;48.122;11.546;2023-03-01T08:32:08;29.57;;;17.00;;
17985;SDS011;9118;48.122;11.546;2023-03-01T08:34:37;32.43;;;17.80;;
17985;SDS011;9118;48.122;11.546;2023-03-01T08:37:04;32.47;;;19.03;;
17985;SDS011;9118;48.122;11.546;2023-03-01T08:39:31;32.33;;;17.93;;
17985;SDS011;9118;48.122;11.546;2023-03-01T08:41:58;32.37;;;17.97;;
17985;SDS011;9118;48.122;11.546;2023-03-01T08:44:25;34.00;;;17.77;;
17985;SDS011;9118;48.122;11.546;2023-03-01T08:46:52;31.43;;;17.37;;
17985;SDS011;9118;48.122;11.546;2023-03-01T08:49:20;32.63;;;18.00;;
17985;SDS011;9118;48.122;11.546;2023-03-01T08:51:50;34.97;;;18.57;;
17985;SDS011;9118;48.122;11.546;2023-03-01T08:54:17;32.00;;;18.00;;
17985;SDS011;9118;48.122;11.546;2023-03-01T08:56:46;33.20;;;18.70;;
17985;SDS011;9118;48.122;11.546;2023-03-01T08:59:15;34.13;;;18.13;;
17985;SDS011;9118;48.122;11.546;2023-03-01T09:01:43;35.83;;;18.27;;
17985;SDS011;9118;48.122;11.546;2023-03-01T09:04:11;28.73;;;16.93;;
17985;SDS011;9118;48.122;11.546;2023-03-01T09:06:39;32.63;;;17.70;;
17985;SDS011;9118;48.122;11.546;2023-03-01T09:09:10;33.37;;;18.27;;
17985;SDS011;9118;48.122;11.546;2023-03-01T09:11:40;28.60;;;18.10;;
17985;SDS011;9118;48.122;11.546;2023-03-01T09:14:08;29.13;;;17.13;;
17985;SDS011;9118;48.122;11.546;2023-03-01T09:16:35;34.53;;;18.47;;
17985;SDS011;9118;48.122;11.546;2023-03-01T09:19:03;37.73;;;18.23;;
17985;SDS011;9118;48.122;11.546;2023-03-01T09:21:30;35.47;;;19.03;;
17985;SDS011;9118;48.122;11.546;2023-03-01T09:23:58;32.27;;;17.57;;
17985;SDS011;9118;48.122;11.546;2023-03-01T09:26:26;30.50;;;18.00;;
17985;SDS011;9118;48.122;11.546;2023-03-01T09:28:55;32.57;;;18.17;;
17985;SDS011;9118;48.122;11.546;2023-03-01T09:31:23;33.27;;;18.37;;
17985;SDS011;9118;48.122;11.546;2023-03-01T09:33:51;35.07;;;18.47;;
17985;SDS011;9118;48.122;11.546;2023-03-01T09:36:22;42.17;;;20.70;;
17985;SDS011;9118;48.122;11.546;2023-03-01T09:38:51;32.70;;;17.63;;
17985;SDS011;9118;48.122;11.546;2023-03-01T09:41:29;35.57;;;18.40;;
17985;SDS011;9118;48.122;11.546;2023-03-01T09:44:28;30.63;;;18.67;;
17985;SDS011;9118;48.122;11.546;2023-03-01T09:47:00;41.17;;;18.70;;
17985;SDS011;9118;48.122;11.546;2023-03-01T09:49:29;29.77;;;17.30;;
17985;SDS011;9118;48.122;11.546;2023-03-01T09:52:01;29.60;;;18.43;;
17985;SDS011;9118;48.122;11.546;2023-03-01T09:54:38;35.87;;;18.83;;
17985;SDS011;9118;48.122;11.546;2023-03-01T09:57:12;39.70;;;17.87;;
17985;SDS011;9118;48.122;11.546;2023-03-01T10:00:00;38.27;;;18.47;;
17985;SDS011;9118;48.122;11.546;2023-03-01T10:02:39;35.97;;;18.23;;
17985;SDS011;9118;48.122;11.546;2023-03-01T10:05:14;33.77;;;18.07;;
17985;SDS011;9118;48.122;11.546;2023-03-01T10:07:59;36.77;;;19.30;;
17985;SDS011;9118;48.122;11.546;2023-03-01T10:10:31;29.67;;;17.60;;
17985;SDS011;9118;48.122;11.546;2023-03-01T10:13:03;32.63;;;18.70;;
17985;SDS011;9118;48.122;11.546;2023-03-01T10:15:39;29.83;;;17.97;;
17985;SDS011;9118;48.122;11.546;2023-03-01T10:18:10;40.27;;;17.77;;
17985;SDS011;9118;48.122;11.546;2023-03-01T10:20:44;30.93;;;18.13;;
17985;SDS011;9118;48.122;11.546;2023-03-01T10:23:17;37.03;;;19.00;;
17985;SDS011;9118;48.122;11.546;2023-03-01T10:25:47;31.93;;;18.60;;
17985;SDS011;9118;48.122;11.546;2023-03-01T10:28:29;34.60;;;17.37;;
17985;SDS011;9118;48.122;11.546;2023-03-01T10:31:02;33.40;;;18.57;;
17985;SDS011;9118;48.122;11.546;2023-03-01T10:33:30;31.23;;;17.87;;
17985;SDS011;9118;48.122;11.546;2023-03-01T10:36:00;34.60;;;17.57;;
17985;SDS011;9118;48.122;11.546;2023-03-01T10:38:28;34.43;;;18.40;;
17985;SDS011;9118;48.122;11.546;2023-03-01T10:40:58;34.23;;;19.77;;
17985;SDS011;9118;48.122;11.546;2023-03-01T10:43:40;28.97;;;18.33;;
17985;SDS011;9118;48.122;11.546;2023-03-01T10:46:22;32.67;;;19.70;;
17985;SDS011;9118;48.122;11.546;2023-03-01T10:49:04;33.33;;;19.20;;
17985;SDS011;9118;48.122;11.546;2023-03-01T10:51:34;32.10;;;19.07;;
17985;SDS011;9118;48.122;11.546;2023-03-01T10:54:01;31.17;;;18.40;;
17985;SDS011;9118;48.122;11.546;2023-03-01T10:56:30;41.77;;;20.80;;
17985;SDS011;9118;48.122;11.546;2023-03-01T10:59:21;35.97;;;19.90;;
17985;SDS011;9118;48.122;11.546;2023-03-01T11:02:03;34.87;;;20.30;;
17985;SDS011;9118;48.122;11.546;2023-03-01T11:04:46;33.90;;;20.20;;
17985;SDS011;9118;48.122;11.546;2023-03-01T11:07:24;35.77;;;19.30;;
17985;SDS011;9118;48.122;11.546;2023-03-01T11:09:51;33.57;;;20.03;;
17985;SDS011;9118;48.122;11.546;2023-03-01T11:12:23;33.50;;;20.30;;
17985;SDS011;9118;48.122;11.546;2023-03-01T11:15:00;32.80;;;19.50;;
17985;SDS011;9118;48.122;11.546;2023-03-01T11:17:30;33.77;;;19.53;;
17985;SDS011;9118;48.122;11.546;2023-03-01T11:20:06;33.90;;;19.07;;
17985;SDS011;9118;48.122;11.546;2023-03-01T11:22:45;32.03;;;18.90;;
17985;SDS011;9118;48.122;11.546;2023-03-01T11:25:19;31.97;;;18.70;;
17985;SDS011;9118;48.122;11.546;2023-03-01T11:27:51;31.77;;;19.47;;
17985;SDS011;9118;48.122;11.546;2023-03-01T11:30:23;36.30;;;20.17;;
17985;SDS011;9118;48.122;11.546;2023-03-01T11:33:08;32.67;;;19.70;;
17985;SDS011;9118;48.122;11.546;2023-03-01T11:35:53;35.20;;;21.63;;
17985;SDS011;9118;48.122;11.546;2023-03-01T11:38:27;34.47;;;20.20;;
17985;SDS011;9118;48.122;11.546;2023-03-01T11:40:57;33.93;;;20.27;;
17985;SDS011;9118;48.122;11.546;2023-03-01T11:43:33;34.37;;;20.53;;
17985;SDS011;9118;48.122;11.546;2023-03-01T11:49:07;34.50;;;20.20;;
17985;SDS011;9118;48.122;11.546;2023-03-01T11:52:08;37.40;;;19.73;;
17985;SDS011;9118;48.122;11.546;2023-03-01T11:54:48;36.50;;;20.67;;
17985;SDS011;9118;48.122;11.546;2023-03-01T11:57:32;46.67;;;21.03;;
17985;SDS011;9118;48.122;11.546;2023-03-01T12:06:24;34.40;;;20.30;;
17985;SDS011;9118;48.122;11.546;2023-03-01T12:09:10;36.67;;;21.13;;
17985;SDS011;9118;48.122;11.546;2023-03-01T12:11:52;35.87;;;20.20;;
17985;SDS011;9118;48.122;11.546;2023-03-01T12:20:22;31.30;;;19.40;;
17985;SDS011;9118;48.122;11.546;2023-03-01T12:23:04;34.43;;;20.20;;
17985;SDS011;9118;48.122;11.546;2023-03-01T12:25:55;36.17;;;19.53;;
17985;SDS011;9118;48.122;11.546;2023-03-01T12:28:34;33.47;;;19.20;;
17985;SDS011;9118;48.122;11.546;2023-03-01T12:34:14;35.90;;;21.50;;
17985;SDS011;9118;48.122;11.546;2023-03-01T12:37:08;32.40;;;19.90;;
17985;SDS011;9118;48.122;11.546;2023-03-01T12:39:55;35.30;;;19.73;;
17985;SDS011;9118;48.122;11.546;2023-03-01T12:42:42;32.70;;;20.10;;
17985;SDS011;9118;48.122;11.546;2023-03-01T12:48:18;29.93;;;17.53;;
17985;SDS011;9118;48.122;11.546;2023-03-01T12:50:55;32.20;;;18.80;;
17985;SDS011;9118;48.122;11.546;2023-03-01T12:53:28;36.17;;;20.83;;
17985;SDS011;9118;48.122;11.546;2023-03-01T12:55:59;35.40;;;20.27;;
17985;SDS011;9118;48.122;11.546;2023-03-01T12:58:29;32.67;;;18.00;;
17985;SDS011;9118;48.122;11.546;2023-03-01T13:01:08;32.70;;;19.47;;
17985;SDS011;9118;48.122;11.546;2023-03-01T13:03:57;30.50;;;19.53;;
17985;SDS011;9118;48.122;11.546;2023-03-01T13:06:39;36.17;;;20.20;;
17985;SDS011;9118;48.122;11.546;2023-03-01T13:09:14;30.73;;;19.10;;
17985;SDS011;9118;48.122;11.546;2023-03-01T13:11:48;36.23;;;20.40;;
17985;SDS011;9118;48.122;11.546;2023-03-01T13:17:01;35.97;;;20.67;;
17985;SDS011;9118;48.122;11.546;2023-03-01T13:19:28;32.63;;;19.50;;
17985;SDS011;9118;48.122;11.546;2023-03-01T13:21:57;31.93;;;19.80;;
17985;SDS011;9118;48.122;11.546;2023-03-01T13:24:33;36.37;;;21.60;;
17985;SDS011;9118;48.122;11.546;2023-03-01T13:27:10;35.00;;;20.53;;
17985;SDS011;9118;48.122;11.546;2023-03-01T13:29:47;31.73;;;19.60;;
17985;SDS011;9118;48.122;11.546;2023-03-01T13:32:18;35.60;;;20.23;;
17985;SDS011;9118;48.122;11.546;2023-03-01T13:34:47;35.43;;;20.43;;
17985;SDS011;9118;48.122;11.546;2023-03-01T13:37:26;37.53;;;20.93;;
17985;SDS011;9118;48.122;11.546;2023-03-01T13:39:57;34.03;;;20.30;;
17985;SDS011;9118;48.122;11.546;2023-03-01T13:42:37;32.57;;;20.27;;
17985;SDS011;9118;48.122;11.546;2023-03-01T13:45:23;33.47;;;20.30;;
17985;SDS011;9118;48.122;11.546;2023-03-01T13:48:01;33.87;;;19.83;;
17985;SDS011;9118;48.122;11.546;2023-03-01T13:50:32;36.67;;;21.23;;
17985;SDS011;9118;48.122;11.546;2023-03-01T13:53:04;33.67;;;19.87;;
17985;SDS011;9118;48.122;11.546;2023-03-01T13:55:40;37.77;;;22.00;;
17985;SDS011;9118;48.122;11.546;2023-03-01T13:58:15;39.27;;;22.07;;
17985;SDS011;9118;48.122;11.546;2023-03-01T14:00:46;37.00;;;20.37;;
17985;SDS011;9118;48.122;11.546;2023-03-01T14:03:15;34.07;;;20.33;;
17985;SDS011;9118;48.122;11.546;2023-03-01T14:05:44;41.87;;;23.53;;
17985;SDS011;9118;48.122;11.546;2023-03-01T14:08:25;36.23;;;20.10;;
17985;SDS011;9118;48.122;11.546;2023-03-01T14:10:58;33.73;;;20.50;;
17985;SDS011;9118;48.122;11.546;2023-03-01T14:13:48;34.60;;;20.73;;
17985;SDS011;9118;48.122;11.546;2023-03-01T14:16:28;34.77;;;20.43;;
17985;SDS011;9118;48.122;11.546;2023-03-01T14:19:05;36.87;;;20.90;;
17985;SDS011;9118;48.122;11.546;2023-03-01T14:21:41;42.67;;;24.00;;
17985;SDS011;9118;48.122;11.546;2023-03-01T14:24:15;36.53;;;21.67;;
17985;SDS011;9118;48.122;11.546;2023-03-01T14:26:46;39.70;;;22.73;;
17985;SDS011;9118;48.122;11.546;2023-03-01T14:29:26;36.57;;;21.07;;
17985;SDS011;9118;48.122;11.546;2023-03-01T14:32:08;33.63;;;21.20;;
17985;SDS011;9118;48.122;11.546;2023-03-01T14:34:36;34.67;;;19.80;;
17985;SDS011;9118;48.122;11.546;2023-03-01T14:37:11;42.70;;;20.10;;
17985;SDS011;9118;48.122;11.546;2023-03-01T14:39:44;36.27;;;20.37;;
17985;SDS011;9118;48.122;11.546;2023-03-01T14:42:13;35.00;;;20.50;;
17985;SDS011;9118;48.122;11.546;2023-03-01T14:44:41;39.70;;;22.10;;
17985;SDS011;9118;48.122;11.546;2023-03-01T14:47:10;36.67;;;20.70;;
17985;SDS011;9118;48.122;11.546;2023-03-01T14:49:40;34.00;;;18.63;;
17985;SDS011;9118;48.122;11.546;2023-03-01T14:52:16;34.27;;;19.03;;
17985;SDS011;9118;48.122;11.546;2023-03-01T14:54:46;38.17;;;21.57;;
17985;SDS011;9118;48.122;11.546;2023-03-01T14:57:17;31.07;;;19.13;;
17985;SDS011;9118;48.122;11.546;2023-03-01T14:59:46;38.67;;;20.57;;
17985;SDS011;9118;48.122;11.546;2023-03-01T15:02:17;37.53;;;20.80;;
17985;SDS011;9118;48.122;11.546;2023-03-01T15:04:46;32.20;;;19.27;;
17985;SDS011;9118;48.122;11.546;2023-03-01T15:07:15;41.70;;;19.67;;
17985;SDS011;9118;48.122;11.546;2023-03-01T15:09:42;28.77;;;17.00;;